This is the latest recevied weather packets stored in our database for station/object KF8LO-1. If no packets are shown the sender has not sent any weather packets the latest 1 day(s).
| Time | Temp. | Humidity | Pressure | Rain* | Wind** | Luminosity | Snow |
|---|---|---|---|---|---|---|---|
| 1836274679 | 20.56° C | 58% | 0 hPa | 0 mm | 2.24 m/s, 119° | - | - |
| 1836274529 | 20.56° C | 58% | 0 hPa | 0 mm | 2.24 m/s, 123° | - | - |
| 1836274379 | 20.56° C | 57% | 0 hPa | 0 mm | 2.24 m/s, 118° | - | - |
| 1836274229 | 20.56° C | 58% | 0 hPa | 0 mm | 2.24 m/s, 126° | - | - |
| 1836274079 | 20.56° C | 57% | 0 hPa | 0 mm | 2.24 m/s, 118° | - | - |
| 1778072402 | 13.33° C | 87% | 0 hPa | 2.29 mm | 0.89 m/s, 309° | - | - |
| 1778072102 | 13.33° C | 86% | 0 hPa | 2.54 mm | 4.92 m/s, 303° | - | - |
| 1778071802 | 13.33° C | 86% | 0 hPa | 2.54 mm | 4.02 m/s, 288° | - | - |
| 1778071502 | 13.33° C | 86% | 0 hPa | 3.05 mm | 4.92 m/s, 278° | - | - |
| 1778071202 | 13.33° C | 86% | 0 hPa | 3.81 mm | 2.68 m/s, 281° | - | - |
| 1778070902 | 13.33° C | 86% | 0 hPa | 4.83 mm | 1.79 m/s, 35° | - | - |
| 1778070602 | 13.33° C | 85% | 0 hPa | 5.08 mm | 3.58 m/s, 262° | - | - |
| 1778070302 | 13.33° C | 84% | 0 hPa | 5.33 mm | 4.47 m/s, 260° | - | - |
| 1778070002 | 13.33° C | 85% | 0 hPa | 5.59 mm | 1.79 m/s, 300° | - | - |
| 1778069702 | 13.33° C | 84% | 0 hPa | 5.59 mm | 4.02 m/s, 278° | - | - |
| 1778069402 | 13.33° C | 83% | 0 hPa | 5.08 mm | 4.92 m/s, 267° | - | - |
| 1778069102 | 13.33° C | 85% | 0 hPa | 4.32 mm | 2.24 m/s, 286° | - | - |
| 1778068802 | 13.33° C | 85% | 0 hPa | 4.06 mm | 3.58 m/s, 286° | - | - |
| 1778068502 | 13.33° C | 84% | 0 hPa | 3.81 mm | 8.05 m/s, 271° | - | - |
| 1778068202 | 13.33° C | 84% | 0 hPa | 3.81 mm | 3.58 m/s, 15° | - | - |
| 1778067902 | 13.33° C | 84% | 0 hPa | 3.56 mm | 4.02 m/s, 243° | - | - |
| 1778067615 | 13.33° C | 83% | 0 hPa | 2.79 mm | 4.92 m/s, 285° | - | - |
| 1778067302 | 13.33° C | 81% | 0 hPa | 2.29 mm | 4.02 m/s, 195° | - | - |
| 1778067002 | 13.33° C | 80% | 0 hPa | 2.54 mm | 4.02 m/s, 281° | - | - |
| 1778066702 | 13.33° C | 81% | 0 hPa | 2.79 mm | 4.02 m/s, 244° | - | - |
* Rain latest hour (hover to see other rain measurements)
** Current wind speed in m/s (hover to see current wind gust speed)